sensor_id;sensor_type;location;lat;lon;timestamp;temperature;humidity
9730;DHT22;4904;49.152;11.004;2024-01-16T00:00:49;-1.00;99.90
9730;DHT22;4904;49.152;11.004;2024-01-16T00:03:16;-1.10;99.90
9730;DHT22;4904;49.152;11.004;2024-01-16T00:05:45;-1.10;99.90
9730;DHT22;4904;49.152;11.004;2024-01-16T00:08:11;-1.00;99.90
9730;DHT22;4904;49.152;11.004;2024-01-16T00:10:38;-1.10;99.90
9730;DHT22;4904;49.152;11.004;2024-01-16T00:13:05;-1.10;99.90
9730;DHT22;4904;49.152;11.004;2024-01-16T00:15:32;-1.00;99.90
9730;DHT22;4904;49.152;11.004;2024-01-16T00:17:59;-1.10;99.90
9730;DHT22;4904;49.152;11.004;2024-01-16T00:20:26;-1.00;99.90
9730;DHT22;4904;49.152;11.004;2024-01-16T00:22:54;-1.00;99.90
9730;DHT22;4904;49.152;11.004;2024-01-16T00:25:21;-1.10;99.90
9730;DHT22;4904;49.152;11.004;2024-01-16T00:27:48;-1.00;99.90
9730;DHT22;4904;49.152;11.004;2024-01-16T00:30:16;-1.00;99.90
9730;DHT22;4904;49.152;11.004;2024-01-16T00:32:43;-1.00;99.90
9730;DHT22;4904;49.152;11.004;2024-01-16T00:35:10;-1.00;99.90
9730;DHT22;4904;49.152;11.004;2024-01-16T00:37:37;-1.00;99.90
9730;DHT22;4904;49.152;11.004;2024-01-16T00:40:06;-1.00;99.90
9730;DHT22;4904;49.152;11.004;2024-01-16T00:42:34;-1.00;99.90
9730;DHT22;4904;49.152;11.004;2024-01-16T00:45:01;-1.00;99.90
9730;DHT22;4904;49.152;11.004;2024-01-16T00:47:28;-1.00;99.90
9730;DHT22;4904;49.152;11.004;2024-01-16T00:49:55;-1.00;99.90
9730;DHT22;4904;49.152;11.004;2024-01-16T00:52:23;-1.00;99.90
9730;DHT22;4904;49.152;11.004;2024-01-16T00:54:50;-1.00;99.90
9730;DHT22;4904;49.152;11.004;2024-01-16T00:57:18;-1.00;99.90
9730;DHT22;4904;49.152;11.004;2024-01-16T00:59:45;-1.00;99.90
9730;DHT22;4904;49.152;11.004;2024-01-16T01:02:12;-1.10;99.90
9730;DHT22;4904;49.152;11.004;2024-01-16T01:04:39;-1.10;99.90
9730;DHT22;4904;49.152;11.004;2024-01-16T01:07:07;-1.10;99.90
9730;DHT22;4904;49.152;11.004;2024-01-16T01:09:34;-1.10;99.90
9730;DHT22;4904;49.152;11.004;2024-01-16T01:12:01;-1.10;99.90
9730;DHT22;4904;49.152;11.004;2024-01-16T01:14:30;-1.10;99.90
9730;DHT22;4904;49.152;11.004;2024-01-16T01:16:57;-1.10;99.90
9730;DHT22;4904;49.152;11.004;2024-01-16T01:19:24;-1.10;99.90
9730;DHT22;4904;49.152;11.004;2024-01-16T01:21:50;-1.10;99.90
9730;DHT22;4904;49.152;11.004;2024-01-16T01:24:17;-1.10;99.90
9730;DHT22;4904;49.152;11.004;2024-01-16T01:26:44;-1.10;99.90
9730;DHT22;4904;49.152;11.004;2024-01-16T01:29:11;-1.10;99.90
9730;DHT22;4904;49.152;11.004;2024-01-16T01:31:39;-1.10;99.90
9730;DHT22;4904;49.152;11.004;2024-01-16T01:34:06;-1.10;99.90
9730;DHT22;4904;49.152;11.004;2024-01-16T01:36:33;-1.10;99.90
9730;DHT22;4904;49.152;11.004;2024-01-16T01:39:00;-1.10;99.90
9730;DHT22;4904;49.152;11.004;2024-01-16T01:41:28;-1.10;99.90
9730;DHT22;4904;49.152;11.004;2024-01-16T01:43:55;-1.10;99.90
9730;DHT22;4904;49.152;11.004;2024-01-16T01:46:23;-1.10;99.90
9730;DHT22;4904;49.152;11.004;2024-01-16T01:48:51;-1.10;99.90
9730;DHT22;4904;49.152;11.004;2024-01-16T01:51:19;-1.10;99.90
9730;DHT22;4904;49.152;11.004;2024-01-16T01:53:49;-1.10;99.90
9730;DHT22;4904;49.152;11.004;2024-01-16T01:56:18;-1.10;99.90
9730;DHT22;4904;49.152;11.004;2024-01-16T01:58:47;-1.10;99.90
9730;DHT22;4904;49.152;11.004;2024-01-16T02:01:16;-1.10;99.90
9730;DHT22;4904;49.152;11.004;2024-01-16T02:03:45;-1.10;99.90
9730;DHT22;4904;49.152;11.004;2024-01-16T02:06:14;-1.10;99.90
9730;DHT22;4904;49.152;11.004;2024-01-16T02:08:42;-1.10;99.90
9730;DHT22;4904;49.152;11.004;2024-01-16T02:11:09;-1.10;99.90
9730;DHT22;4904;49.152;11.004;2024-01-16T02:13:36;-1.10;99.90
9730;DHT22;4904;49.152;11.004;2024-01-16T02:16:03;-1.10;99.90
9730;DHT22;4904;49.152;11.004;2024-01-16T02:18:31;-1.10;99.90
9730;DHT22;4904;49.152;11.004;2024-01-16T02:21:00;-1.10;99.90
9730;DHT22;4904;49.152;11.004;2024-01-16T02:23:30;-1.10;99.90
9730;DHT22;4904;49.152;11.004;2024-01-16T02:25:57;-1.10;99.90
9730;DHT22;4904;49.152;11.004;2024-01-16T02:28:25;-1.10;99.90
9730;DHT22;4904;49.152;11.004;2024-01-16T02:30:51;-1.00;99.90
9730;DHT22;4904;49.152;11.004;2024-01-16T02:33:18;-1.10;99.90
9730;DHT22;4904;49.152;11.004;2024-01-16T02:35:45;-1.10;99.90
9730;DHT22;4904;49.152;11.004;2024-01-16T02:38:12;-1.10;99.90
9730;DHT22;4904;49.152;11.004;2024-01-16T02:40:40;-1.10;99.90
9730;DHT22;4904;49.152;11.004;2024-01-16T02:43:07;-1.10;99.90
9730;DHT22;4904;49.152;11.004;2024-01-16T02:45:34;-1.10;99.90
9730;DHT22;4904;49.152;11.004;2024-01-16T02:48:01;-1.10;99.90
9730;DHT22;4904;49.152;11.004;2024-01-16T02:50:29;-1.10;99.90
9730;DHT22;4904;49.152;11.004;2024-01-16T02:52:55;-1.10;99.90
9730;DHT22;4904;49.152;11.004;2024-01-16T02:55:22;-1.10;99.90
9730;DHT22;4904;49.152;11.004;2024-01-16T02:57:51;-1.00;99.90
9730;DHT22;4904;49.152;11.004;2024-01-16T03:00:18;-1.10;99.90
9730;DHT22;4904;49.152;11.004;2024-01-16T03:02:45;-1.10;99.90
9730;DHT22;4904;49.152;11.004;2024-01-16T03:05:12;-1.00;99.90
9730;DHT22;4904;49.152;11.004;2024-01-16T03:07:39;-1.10;99.90
9730;DHT22;4904;49.152;11.004;2024-01-16T03:10:06;-1.00;99.90
9730;DHT22;4904;49.152;11.004;2024-01-16T03:12:33;-1.10;99.90
9730;DHT22;4904;49.152;11.004;2024-01-16T03:15:02;-1.10;99.90
9730;DHT22;4904;49.152;11.004;2024-01-16T03:17:29;-1.10;99.90
9730;DHT22;4904;49.152;11.004;2024-01-16T03:19:56;-1.10;99.90
9730;DHT22;4904;49.152;11.004;2024-01-16T03:22:23;-1.20;99.90
9730;DHT22;4904;49.152;11.004;2024-01-16T03:24:51;-1.00;99.90
9730;DHT22;4904;49.152;11.004;2024-01-16T03:27:18;-1.20;99.90
9730;DHT22;4904;49.152;11.004;2024-01-16T03:29:45;-1.20;99.90
9730;DHT22;4904;49.152;11.004;2024-01-16T03:32:13;-1.20;99.90
9730;DHT22;4904;49.152;11.004;2024-01-16T03:34:40;-1.30;99.90
9730;DHT22;4904;49.152;11.004;2024-01-16T03:37:07;-1.30;99.90
9730;DHT22;4904;49.152;11.004;2024-01-16T03:39:34;-1.40;99.90
9730;DHT22;4904;49.152;11.004;2024-01-16T03:42:01;-1.40;99.90
9730;DHT22;4904;49.152;11.004;2024-01-16T03:44:27;-1.50;99.90
9730;DHT22;4904;49.152;11.004;2024-01-16T03:46:55;-1.60;99.90
9730;DHT22;4904;49.152;11.004;2024-01-16T03:49:23;-1.60;99.90
9730;DHT22;4904;49.152;11.004;2024-01-16T03:51:51;-1.60;99.90
9730;DHT22;4904;49.152;11.004;2024-01-16T03:54:18;-1.70;99.90
9730;DHT22;4904;49.152;11.004;2024-01-16T03:56:44;-1.70;99.90
9730;DHT22;4904;49.152;11.004;2024-01-16T03:59:12;-1.70;99.90
9730;DHT22;4904;49.152;11.004;2024-01-16T04:01:39;-1.80;99.90
9730;DHT22;4904;49.152;11.004;2024-01-16T04:04:06;-1.70;99.90
9730;DHT22;4904;49.152;11.004;2024-01-16T04:06:34;-1.70;99.90
9730;DHT22;4904;49.152;11.004;2024-01-16T04:09:01;-1.80;99.90
9730;DHT22;4904;49.152;11.004;2024-01-16T04:11:28;-1.80;99.90
9730;DHT22;4904;49.152;11.004;2024-01-16T04:13:55;-1.80;99.90
9730;DHT22;4904;49.152;11.004;2024-01-16T04:16:22;-1.80;99.90
9730;DHT22;4904;49.152;11.004;2024-01-16T04:18:49;-1.80;99.90
9730;DHT22;4904;49.152;11.004;2024-01-16T04:21:16;-1.90;99.90
9730;DHT22;4904;49.152;11.004;2024-01-16T04:23:44;-1.80;99.90
9730;DHT22;4904;49.152;11.004;2024-01-16T04:26:11;-1.80;99.90
9730;DHT22;4904;49.152;11.004;2024-01-16T04:28:38;-1.70;99.90
9730;DHT22;4904;49.152;11.004;2024-01-16T04:31:05;-1.70;99.90
9730;DHT22;4904;49.152;11.004;2024-01-16T04:33:32;-1.70;99.90
9730;DHT22;4904;49.152;11.004;2024-01-16T04:35:59;-1.70;99.90
9730;DHT22;4904;49.152;11.004;2024-01-16T04:38:26;-1.60;99.90
9730;DHT22;4904;49.152;11.004;2024-01-16T04:40:54;-1.50;99.90
9730;DHT22;4904;49.152;11.004;2024-01-16T04:43:21;-1.50;99.90
9730;DHT22;4904;49.152;11.004;2024-01-16T04:45:48;-1.50;99.90
9730;DHT22;4904;49.152;11.004;2024-01-16T04:48:14;-1.50;99.90
9730;DHT22;4904;49.152;11.004;2024-01-16T04:50:41;-1.40;99.90
9730;DHT22;4904;49.152;11.004;2024-01-16T04:53:08;-1.40;99.90
9730;DHT22;4904;49.152;11.004;2024-01-16T04:55:35;-1.40;99.90
9730;DHT22;4904;49.152;11.004;2024-01-16T04:58:04;-1.40;99.90
9730;DHT22;4904;49.152;11.004;2024-01-16T05:00:31;-1.40;99.90
9730;DHT22;4904;49.152;11.004;2024-01-16T05:02:58;-1.40;99.90
9730;DHT22;4904;49.152;11.004;2024-01-16T05:05:25;-1.50;99.90
9730;DHT22;4904;49.152;11.004;2024-01-16T05:07:52;-1.50;99.90
9730;DHT22;4904;49.152;11.004;2024-01-16T05:10:19;-1.50;99.90
9730;DHT22;4904;49.152;11.004;2024-01-16T05:12:46;-1.60;99.90
9730;DHT22;4904;49.152;11.004;2024-01-16T05:15:14;-1.60;99.90
9730;DHT22;4904;49.152;11.004;2024-01-16T05:17:41;-1.60;99.90
9730;DHT22;4904;49.152;11.004;2024-01-16T05:20:08;-1.50;99.90
9730;DHT22;4904;49.152;11.004;2024-01-16T05:22:36;-1.60;99.90
9730;DHT22;4904;49.152;11.004;2024-01-16T05:25:04;-1.60;99.90
9730;DHT22;4904;49.152;11.004;2024-01-16T05:27:32;-1.60;99.90
9730;DHT22;4904;49.152;11.004;2024-01-16T05:29:59;-1.60;99.90
9730;DHT22;4904;49.152;11.004;2024-01-16T05:32:28;-1.60;99.90
9730;DHT22;4904;49.152;11.004;2024-01-16T05:34:54;-1.60;99.90
9730;DHT22;4904;49.152;11.004;2024-01-16T05:37:21;-1.50;99.90
9730;DHT22;4904;49.152;11.004;2024-01-16T05:39:48;-1.60;99.90
9730;DHT22;4904;49.152;11.004;2024-01-16T05:42:15;-1.60;99.90
9730;DHT22;4904;49.152;11.004;2024-01-16T05:44:43;-1.60;99.90
9730;DHT22;4904;49.152;11.004;2024-01-16T05:47:10;-1.50;99.90
9730;DHT22;4904;49.152;11.004;2024-01-16T05:49:38;-1.50;99.90
9730;DHT22;4904;49.152;11.004;2024-01-16T05:52:07;-1.50;99.90
9730;DHT22;4904;49.152;11.004;2024-01-16T05:54:34;-1.50;99.90
9730;DHT22;4904;49.152;11.004;2024-01-16T05:57:01;-1.50;99.90
9730;DHT22;4904;49.152;11.004;2024-01-16T05:59:28;-1.50;99.90
9730;DHT22;4904;49.152;11.004;2024-01-16T06:01:55;-1.40;99.90
9730;DHT22;4904;49.152;11.004;2024-01-16T06:04:22;-1.40;99.90
9730;DHT22;4904;49.152;11.004;2024-01-16T06:06:50;-1.40;99.90
9730;DHT22;4904;49.152;11.004;2024-01-16T06:09:17;-1.40;99.90
9730;DHT22;4904;49.152;11.004;2024-01-16T06:11:44;-1.40;99.90
9730;DHT22;4904;49.152;11.004;2024-01-16T06:14:11;-1.30;99.90
9730;DHT22;4904;49.152;11.004;2024-01-16T06:16:38;-1.30;99.90
9730;DHT22;4904;49.152;11.004;2024-01-16T06:19:05;-1.40;99.90
9730;DHT22;4904;49.152;11.004;2024-01-16T06:21:33;-1.30;99.90
9730;DHT22;4904;49.152;11.004;2024-01-16T06:24:01;-1.40;99.90
9730;DHT22;4904;49.152;11.004;2024-01-16T06:26:28;-1.30;99.90
9730;DHT22;4904;49.152;11.004;2024-01-16T06:28:55;-1.30;99.90
9730;DHT22;4904;49.152;11.004;2024-01-16T06:31:22;-1.30;99.90
9730;DHT22;4904;49.152;11.004;2024-01-16T06:33:49;-1.30;99.90
9730;DHT22;4904;49.152;11.004;2024-01-16T06:36:16;-1.30;99.90
9730;DHT22;4904;49.152;11.004;2024-01-16T06:38:43;-1.30;99.90
9730;DHT22;4904;49.152;11.004;2024-01-16T06:41:11;-1.40;99.90
9730;DHT22;4904;49.152;11.004;2024-01-16T06:43:38;-1.30;99.90
9730;DHT22;4904;49.152;11.004;2024-01-16T06:46:05;-1.40;99.90
9730;DHT22;4904;49.152;11.004;2024-01-16T06:48:33;-1.40;99.90
9730;DHT22;4904;49.152;11.004;2024-01-16T06:51:01;-1.30;99.90
9730;DHT22;4904;49.152;11.004;2024-01-16T06:53:28;-1.30;99.90
9730;DHT22;4904;49.152;11.004;2024-01-16T06:55:54;-1.40;99.90
9730;DHT22;4904;49.152;11.004;2024-01-16T06:58:23;-1.40;99.90
9730;DHT22;4904;49.152;11.004;2024-01-16T07:00:49;-1.40;99.90
9730;DHT22;4904;49.152;11.004;2024-01-16T07:03:16;-1.50;99.90
9730;DHT22;4904;49.152;11.004;2024-01-16T07:05:44;-1.50;99.90
9730;DHT22;4904;49.152;11.004;2024-01-16T07:08:11;-1.60;99.90
9730;DHT22;4904;49.152;11.004;2024-01-16T07:10:37;-1.60;99.90
9730;DHT22;4904;49.152;11.004;2024-01-16T07:13:04;-1.70;99.90
9730;DHT22;4904;49.152;11.004;2024-01-16T07:15:34;-1.80;99.90
9730;DHT22;4904;49.152;11.004;2024-01-16T07:18:01;-1.70;99.90
9730;DHT22;4904;49.152;11.004;2024-01-16T07:20:28;-1.70;99.90
9730;DHT22;4904;49.152;11.004;2024-01-16T07:22:55;-1.70;99.90
9730;DHT22;4904;49.152;11.004;2024-01-16T07:25:22;-1.60;99.90
9730;DHT22;4904;49.152;11.004;2024-01-16T07:27:49;-1.60;99.90
9730;DHT22;4904;49.152;11.004;2024-01-16T07:30:16;-1.60;99.90
9730;DHT22;4904;49.152;11.004;2024-01-16T07:32:44;-1.60;99.90
9730;DHT22;4904;49.152;11.004;2024-01-16T07:35:11;-1.50;99.90
9730;DHT22;4904;49.152;11.004;2024-01-16T07:37:37;-1.50;99.90
9730;DHT22;4904;49.152;11.004;2024-01-16T07:40:05;-1.50;99.90
9730;DHT22;4904;49.152;11.004;2024-01-16T07:42:35;-1.60;99.90
9730;DHT22;4904;49.152;11.004;2024-01-16T07:45:03;-1.80;99.90
9730;DHT22;4904;49.152;11.004;2024-01-16T07:47:30;-1.80;99.90
9730;DHT22;4904;49.152;11.004;2024-01-16T07:49:58;-1.80;99.90
9730;DHT22;4904;49.152;11.004;2024-01-16T07:52:26;-1.80;99.90
9730;DHT22;4904;49.152;11.004;2024-01-16T07:54:54;-1.80;99.90
9730;DHT22;4904;49.152;11.004;2024-01-16T07:57:20;-1.80;99.90
9730;DHT22;4904;49.152;11.004;2024-01-16T07:59:47;-1.90;99.90
9730;DHT22;4904;49.152;11.004;2024-01-16T08:02:14;-1.90;99.90
9730;DHT22;4904;49.152;11.004;2024-01-16T08:04:41;-2.00;99.90
9730;DHT22;4904;49.152;11.004;2024-01-16T08:07:09;-2.10;99.90
9730;DHT22;4904;49.152;11.004;2024-01-16T08:09:36;-2.20;99.90
9730;DHT22;4904;49.152;11.004;2024-01-16T08:12:03;-2.20;99.90
9730;DHT22;4904;49.152;11.004;2024-01-16T08:14:31;-2.20;99.90
9730;DHT22;4904;49.152;11.004;2024-01-16T08:16:58;-2.30;99.90
9730;DHT22;4904;49.152;11.004;2024-01-16T08:19:25;-2.30;99.90
9730;DHT22;4904;49.152;11.004;2024-01-16T08:21:52;-2.30;99.90
9730;DHT22;4904;49.152;11.004;2024-01-16T08:24:20;-2.30;99.90
9730;DHT22;4904;49.152;11.004;2024-01-16T08:26:48;-2.30;99.90
9730;DHT22;4904;49.152;11.004;2024-01-16T08:29:15;-2.30;99.90
9730;DHT22;4904;49.152;11.004;2024-01-16T08:31:42;-2.40;99.90
9730;DHT22;4904;49.152;11.004;2024-01-16T08:34:08;-2.30;99.90
9730;DHT22;4904;49.152;11.004;2024-01-16T08:36:35;-2.30;99.90
9730;DHT22;4904;49.152;11.004;2024-01-16T08:39:03;-2.20;99.90
9730;DHT22;4904;49.152;11.004;2024-01-16T08:41:32;-2.20;99.90
9730;DHT22;4904;49.152;11.004;2024-01-16T08:43:59;-2.30;99.90
9730;DHT22;4904;49.152;11.004;2024-01-16T08:46:26;-2.30;99.90
9730;DHT22;4904;49.152;11.004;2024-01-16T08:48:53;-2.20;99.90
9730;DHT22;4904;49.152;11.004;2024-01-16T08:51:20;-2.10;99.90
9730;DHT22;4904;49.152;11.004;2024-01-16T08:53:47;-2.20;99.90
9730;DHT22;4904;49.152;11.004;2024-01-16T08:56:14;-2.10;99.90
9730;DHT22;4904;49.152;11.004;2024-01-16T08:58:44;-2.10;99.90
9730;DHT22;4904;49.152;11.004;2024-01-16T09:01:11;-2.10;99.90
9730;DHT22;4904;49.152;11.004;2024-01-16T09:03:38;-2.00;99.90
9730;DHT22;4904;49.152;11.004;2024-01-16T09:06:05;-1.90;99.90
9730;DHT22;4904;49.152;11.004;2024-01-16T09:08:32;-1.90;99.90
9730;DHT22;4904;49.152;11.004;2024-01-16T09:10:59;-1.80;99.90
9730;DHT22;4904;49.152;11.004;2024-01-16T09:13:26;-1.80;99.90
9730;DHT22;4904;49.152;11.004;2024-01-16T09:15:54;-1.80;99.90
9730;DHT22;4904;49.152;11.004;2024-01-16T09:18:21;-1.70;99.90
9730;DHT22;4904;49.152;11.004;2024-01-16T09:20:48;-1.60;99.90
9730;DHT22;4904;49.152;11.004;2024-01-16T09:23:15;-1.60;99.90
9730;DHT22;4904;49.152;11.004;2024-01-16T09:25:42;-1.60;99.90
9730;DHT22;4904;49.152;11.004;2024-01-16T09:28:08;-1.50;99.90
9730;DHT22;4904;49.152;11.004;2024-01-16T09:30:35;-1.30;99.90
9730;DHT22;4904;49.152;11.004;2024-01-16T09:33:04;-1.20;99.90
9730;DHT22;4904;49.152;11.004;2024-01-16T09:35:32;-1.20;99.90
9730;DHT22;4904;49.152;11.004;2024-01-16T09:38:00;-1.10;99.90
9730;DHT22;4904;49.152;11.004;2024-01-16T09:40:27;-1.10;99.90
9730;DHT22;4904;49.152;11.004;2024-01-16T09:42:54;-1.10;99.90
9730;DHT22;4904;49.152;11.004;2024-01-16T09:45:21;-1.10;99.90
9730;DHT22;4904;49.152;11.004;2024-01-16T09:47:50;-1.30;99.90
9730;DHT22;4904;49.152;11.004;2024-01-16T09:50:19;-1.20;99.90
9730;DHT22;4904;49.152;11.004;2024-01-16T09:52:46;-1.20;99.90
9730;DHT22;4904;49.152;11.004;2024-01-16T09:55:13;-1.00;99.90
9730;DHT22;4904;49.152;11.004;2024-01-16T09:57:40;-1.10;99.90
9730;DHT22;4904;49.152;11.004;2024-01-16T10:00:10;-1.10;99.90
9730;DHT22;4904;49.152;11.004;2024-01-16T10:02:38;-1.00;99.90
9730;DHT22;4904;49.152;11.004;2024-01-16T10:05:06;-1.00;99.90
9730;DHT22;4904;49.152;11.004;2024-01-16T10:07:37;-1.00;99.90
9730;DHT22;4904;49.152;11.004;2024-01-16T10:10:06;-0.90;99.90
9730;DHT22;4904;49.152;11.004;2024-01-16T10:12:33;-0.90;99.90
9730;DHT22;4904;49.152;11.004;2024-01-16T10:15:00;-0.90;99.90
9730;DHT22;4904;49.152;11.004;2024-01-16T10:17:37;-0.80;99.90
9730;DHT22;4904;49.152;11.004;2024-01-16T10:20:06;-0.70;99.90
9730;DHT22;4904;49.152;11.004;2024-01-16T10:22:40;-0.70;99.90
9730;DHT22;4904;49.152;11.004;2024-01-16T10:25:08;-0.70;99.90
9730;DHT22;4904;49.152;11.004;2024-01-16T10:27:37;-0.60;99.90
9730;DHT22;4904;49.152;11.004;2024-01-16T10:30:05;-0.60;99.90
9730;DHT22;4904;49.152;11.004;2024-01-16T10:32:34;-0.50;99.90
9730;DHT22;4904;49.152;11.004;2024-01-16T10:35:02;-0.50;99.90
9730;DHT22;4904;49.152;11.004;2024-01-16T10:37:30;-0.60;99.90
9730;DHT22;4904;49.152;11.004;2024-01-16T10:39:59;-0.60;99.90
9730;DHT22;4904;49.152;11.004;2024-01-16T10:42:25;-0.60;99.90
9730;DHT22;4904;49.152;11.004;2024-01-16T10:44:53;-0.50;99.90
9730;DHT22;4904;49.152;11.004;2024-01-16T10:47:21;-0.40;99.90
9730;DHT22;4904;49.152;11.004;2024-01-16T10:49:50;-0.30;99.90
9730;DHT22;4904;49.152;11.004;2024-01-16T10:52:18;-0.20;99.90
9730;DHT22;4904;49.152;11.004;2024-01-16T10:54:46;-0.20;99.90
9730;DHT22;4904;49.152;11.004;2024-01-16T10:57:17;-0.20;99.90
9730;DHT22;4904;49.152;11.004;2024-01-16T10:59:50;-0.30;99.90
9730;DHT22;4904;49.152;11.004;2024-01-16T11:02:24;-0.20;99.90
9730;DHT22;4904;49.152;11.004;2024-01-16T11:04:57;-0.30;99.90
9730;DHT22;4904;49.152;11.004;2024-01-16T11:07:24;-0.30;99.90
9730;DHT22;4904;49.152;11.004;2024-01-16T11:09:52;-0.30;99.90
9730;DHT22;4904;49.152;11.004;2024-01-16T11:12:22;-0.30;99.90
9730;DHT22;4904;49.152;11.004;2024-01-16T11:14:52;-0.30;99.90
9730;DHT22;4904;49.152;11.004;2024-01-16T11:17:19;-0.10;99.90
9730;DHT22;4904;49.152;11.004;2024-01-16T11:19:47;-0.30;99.90
9730;DHT22;4904;49.152;11.004;2024-01-16T11:22:15;-0.20;99.90
9730;DHT22;4904;49.152;11.004;2024-01-16T11:24:43;-0.20;99.90
9730;DHT22;4904;49.152;11.004;2024-01-16T11:27:22;-0.10;99.90
9730;DHT22;4904;49.152;11.004;2024-01-16T11:29:50;-0.20;99.90
9730;DHT22;4904;49.152;11.004;2024-01-16T11:32:35;-0.20;99.90
9730;DHT22;4904;49.152;11.004;2024-01-16T11:35:03;-0.30;99.90
9730;DHT22;4904;49.152;11.004;2024-01-16T11:37:30;-0.30;99.90
9730;DHT22;4904;49.152;11.004;2024-01-16T11:40:34;-0.30;99.90
9730;DHT22;4904;49.152;11.004;2024-01-16T11:46:08;-0.30;99.90
9730;DHT22;4904;49.152;11.004;2024-01-16T11:48:36;-0.20;99.90
9730;DHT22;4904;49.152;11.004;2024-01-16T11:51:23;-0.20;99.90
9730;DHT22;4904;49.152;11.004;2024-01-16T11:53:51;-0.10;99.90
9730;DHT22;4904;49.152;11.004;2024-01-16T11:57:01;-0.20;99.90
9730;DHT22;4904;49.152;11.004;2024-01-16T11:59:58;-0.20;99.90
9730;DHT22;4904;49.152;11.004;2024-01-16T12:02:36;-0.10;99.90
9730;DHT22;4904;49.152;11.004;2024-01-16T12:05:05;-0.10;99.90
9730;DHT22;4904;49.152;11.004;2024-01-16T12:07:45;0.00;99.90
9730;DHT22;4904;49.152;11.004;2024-01-16T12:10:12;0.10;99.90
9730;DHT22;4904;49.152;11.004;2024-01-16T12:12:40;0.20;99.90
9730;DHT22;4904;49.152;11.004;2024-01-16T12:15:12;0.10;99.90
9730;DHT22;4904;49.152;11.004;2024-01-16T12:17:52;0.10;99.90
9730;DHT22;4904;49.152;11.004;2024-01-16T12:20:20;0.20;99.90
9730;DHT22;4904;49.152;11.004;2024-01-16T12:22:53;0.30;99.90
9730;DHT22;4904;49.152;11.004;2024-01-16T12:25:20;0.20;99.90
9730;DHT22;4904;49.152;11.004;2024-01-16T12:27:54;0.40;99.90
9730;DHT22;4904;49.152;11.004;2024-01-16T12:30:23;0.50;99.90
9730;DHT22;4904;49.152;11.004;2024-01-16T12:32:51;0.50;99.90
9730;DHT22;4904;49.152;11.004;2024-01-16T12:35:22;0.50;99.90
9730;DHT22;4904;49.152;11.004;2024-01-16T12:37:59;0.50;99.90
9730;DHT22;4904;49.152;11.004;2024-01-16T12:40:26;0.50;99.90
9730;DHT22;4904;49.152;11.004;2024-01-16T12:42:53;0.40;99.90
9730;DHT22;4904;49.152;11.004;2024-01-16T12:45:21;0.40;99.90
9730;DHT22;4904;49.152;11.004;2024-01-16T12:47:53;0.40;99.90
9730;DHT22;4904;49.152;11.004;2024-01-16T12:50:20;0.50;99.90
9730;DHT22;4904;49.152;11.004;2024-01-16T12:52:48;0.60;99.90
9730;DHT22;4904;49.152;11.004;2024-01-16T12:55:15;0.60;99.90
9730;DHT22;4904;49.152;11.004;2024-01-16T12:57:43;0.70;99.90
9730;DHT22;4904;49.152;11.004;2024-01-16T13:00:23;0.90;99.90
9730;DHT22;4904;49.152;11.004;2024-01-16T13:02:52;0.80;99.90
9730;DHT22;4904;49.152;11.004;2024-01-16T13:05:23;0.80;99.90
9730;DHT22;4904;49.152;11.004;2024-01-16T13:08:00;0.80;99.90
9730;DHT22;4904;49.152;11.004;2024-01-16T13:10:28;0.70;99.90
9730;DHT22;4904;49.152;11.004;2024-01-16T13:13:11;0.70;99.90
9730;DHT22;4904;49.152;11.004;2024-01-16T13:15:38;0.80;99.90
9730;DHT22;4904;49.152;11.004;2024-01-16T13:18:17;0.90;99.90
9730;DHT22;4904;49.152;11.004;2024-01-16T13:20:44;1.00;99.90
9730;DHT22;4904;49.152;11.004;2024-01-16T13:23:12;1.10;99.90
9730;DHT22;4904;49.152;11.004;2024-01-16T13:25:42;1.10;99.90
9730;DHT22;4904;49.152;11.004;2024-01-16T13:28:10;1.30;99.90
9730;DHT22;4904;49.152;11.004;2024-01-16T13:30:37;1.10;99.90
9730;DHT22;4904;49.152;11.004;2024-01-16T13:33:04;1.20;99.90
9730;DHT22;4904;49.152;11.004;2024-01-16T13:35:34;1.10;99.90
9730;DHT22;4904;49.152;11.004;2024-01-16T13:38:03;1.10;99.90
9730;DHT22;4904;49.152;11.004;2024-01-16T13:40:30;1.20;99.90
9730;DHT22;4904;49.152;11.004;2024-01-16T13:42:58;1.20;99.90
9730;DHT22;4904;49.152;11.004;2024-01-16T13:45:25;1.20;99.90
9730;DHT22;4904;49.152;11.004;2024-01-16T13:47:52;1.10;99.90
9730;DHT22;4904;49.152;11.004;2024-01-16T13:50:19;1.20;99.90
9730;DHT22;4904;49.152;11.004;2024-01-16T13:52:47;1.10;99.90
9730;DHT22;4904;49.152;11.004;2024-01-16T13:55:14;1.20;99.90
9730;DHT22;4904;49.152;11.004;2024-01-16T13:57:41;1.10;99.90
9730;DHT22;4904;49.152;11.004;2024-01-16T14:00:10;1.10;99.90
9730;DHT22;4904;49.152;11.004;2024-01-16T14:02:39;1.10;99.90
9730;DHT22;4904;49.152;11.004;2024-01-16T14:05:07;1.00;99.90
9730;DHT22;4904;49.152;11.004;2024-01-16T14:07:36;1.00;99.90
9730;DHT22;4904;49.152;11.004;2024-01-16T14:10:05;1.00;99.90
9730;DHT22;4904;49.152;11.004;2024-01-16T14:12:33;1.20;99.90
9730;DHT22;4904;49.152;11.004;2024-01-16T14:15:01;1.30;99.90
9730;DHT22;4904;49.152;11.004;2024-01-16T14:17:31;1.30;99.90
9730;DHT22;4904;49.152;11.004;2024-01-16T14:19:59;1.30;99.90
9730;DHT22;4904;49.152;11.004;2024-01-16T14:22:26;1.40;99.90
9730;DHT22;4904;49.152;11.004;2024-01-16T14:24:53;1.40;99.90
9730;DHT22;4904;49.152;11.004;2024-01-16T14:27:21;1.40;99.90
9730;DHT22;4904;49.152;11.004;2024-01-16T14:29:49;1.40;99.90
9730;DHT22;4904;49.152;11.004;2024-01-16T14:32:16;1.30;99.90
9730;DHT22;4904;49.152;11.004;2024-01-16T14:34:43;1.20;99.90
9730;DHT22;4904;49.152;11.004;2024-01-16T14:37:10;1.20;99.90
9730;DHT22;4904;49.152;11.004;2024-01-16T14:39:37;1.00;99.90
9730;DHT22;4904;49.152;11.004;2024-01-16T14:42:04;1.00;99.90
9730;DHT22;4904;49.152;11.004;2024-01-16T14:44:34;0.90;99.90
9730;DHT22;4904;49.152;11.004;2024-01-16T14:47:01;0.90;99.90
9730;DHT22;4904;49.152;11.004;2024-01-16T14:49:29;1.10;99.90
9730;DHT22;4904;49.152;11.004;2024-01-16T14:51:57;1.10;99.90
9730;DHT22;4904;49.152;11.004;2024-01-16T14:54:24;1.10;99.90
9730;DHT22;4904;49.152;11.004;2024-01-16T14:56:51;1.10;99.90
9730;DHT22;4904;49.152;11.004;2024-01-16T14:59:18;1.10;99.90
9730;DHT22;4904;49.152;11.004;2024-01-16T15:01:46;1.10;99.90
9730;DHT22;4904;49.152;11.004;2024-01-16T15:04:13;1.10;99.90
9730;DHT22;4904;49.152;11.004;2024-01-16T15:06:41;1.10;99.90
9730;DHT22;4904;49.152;11.004;2024-01-16T15:09:08;1.20;99.90
9730;DHT22;4904;49.152;11.004;2024-01-16T15:11:38;1.00;99.90
9730;DHT22;4904;49.152;11.004;2024-01-16T15:14:05;1.00;99.90
9730;DHT22;4904;49.152;11.004;2024-01-16T15:16:32;0.90;99.90
9730;DHT22;4904;49.152;11.004;2024-01-16T15:19:00;0.90;99.90
9730;DHT22;4904;49.152;11.004;2024-01-16T15:21:27;0.90;99.90
9730;DHT22;4904;49.152;11.004;2024-01-16T15:23:54;0.80;99.90
9730;DHT22;4904;49.152;11.004;2024-01-16T15:26:21;0.80;99.90
9730;DHT22;4904;49.152;11.004;2024-01-16T15:28:48;0.90;99.90
9730;DHT22;4904;49.152;11.004;2024-01-16T15:31:15;1.00;99.90
9730;DHT22;4904;49.152;11.004;2024-01-16T15:33:43;1.10;99.90
9730;DHT22;4904;49.152;11.004;2024-01-16T15:36:11;1.10;99.90
9730;DHT22;4904;49.152;11.004;2024-01-16T15:38:38;1.10;99.90
9730;DHT22;4904;49.152;11.004;2024-01-16T15:41:05;1.10;99.90
9730;DHT22;4904;49.152;11.004;2024-01-16T15:43:32;1.00;99.90
9730;DHT22;4904;49.152;11.004;2024-01-16T15:45:59;1.00;99.90
9730;DHT22;4904;49.152;11.004;2024-01-16T15:48:26;1.00;99.90
9730;DHT22;4904;49.152;11.004;2024-01-16T15:50:59;1.00;99.90
9730;DHT22;4904;49.152;11.004;2024-01-16T15:53:27;1.00;99.90
9730;DHT22;4904;49.152;11.004;2024-01-16T15:55:54;0.80;99.90
9730;DHT22;4904;49.152;11.004;2024-01-16T15:58:21;0.90;99.90